AirNav   Everest Fuels
 
 814 users online  

S19 Mc Cormick County Airport
Mc Cormick, South Carolina, USA

GOING TO MC CORMICK?


FAA INFORMATION EFFECTIVE 02 JANUARY 2020

Location

FAA Identifier: S19
Lat/Long: 33-54-29.1490N 082-16-00.9480W
33-54.485817N 082-16.015800W
33.9080969,-82.2669300
(estimated)
Elevation: 459.4 ft. / 140.0 m (surveyed)
Variation: 04W (1985)
From city: 1 mile SE of MC CORMICK, SC
Time zone: UTC -5 (UTC -4 during Daylight Saving Time)
Zip code: 29835

Airport Operations

Airport use: Open to the public
Activation date: 09/1979
Control tower: no
ARTCC: ATLANTA CENTER
FSS: ANDERSON FLIGHT SERVICE STATION
NOTAMs facility: AND (NOTAM-D service available)
Attendance: UNATNDD
Wind indicator: yes
Segmented circle: yes
Beacon: white-green (lighted land airport)
Operates sunset to sunrise.

Airport Communications

CTAF: 122.9

Nearby radio navigation aids

VOR radial/distance  VOR name  Freq  Var
IRQr341/13.1COLLIERS VORTAC113.9004W
GRDr196/21.4GREENWOOD VORTAC115.5001W

 
NDB name  Hdg/Dist  Freq  Var  ID
CORONACA210/22.623907WGIW --. .. .--
WASHINGTON/WILKES COUNTY077/28.443503WIIY .. .. -.--
EMORY337/29.938504WEMR . -- .-.
AIKEN304/33.234706WAIK .- .. -.-
ENOREE239/39.627807WEOE . --- .

Airport Services

Parking: tiedowns
Airframe service: NONE
Powerplant service: NONE
Bottled oxygen: NONE
Bulk oxygen: NONE

Runway Information

Runway 18/36

Dimensions: 3598 x 75 ft. / 1097 x 23 m
Surface: asphalt, in fair condition
Weight bearing capacity: 
Single wheel: 12.5
Runway edge markings: NUMBERS FADED.
RUNWAY 18  RUNWAY 36
Latitude: 33-54.781567N33-54.189033N
Longitude: 082-16.032250W082-15.997867W
Elevation: 451.3 ft.459.4 ft.
Traffic pattern: leftleft
Runway heading: 181 magnetic, 177 true001 magnetic, 357 true
Markings: basic, in poor conditionbasic, in poor condition
Runway end identifier lights: nono
Touchdown point: yes, no lightsyes, no lights
Obstructions: 36 ft. tree, 711 ft. from runway, 108 ft. left of centerline, 14:1 slope to clear52 ft. tree, 815 ft. from runway, 163 ft. left of centerline, 11:1 slope to clear

Airport Ownership and Management from official FAA records

Ownership: Publicly-owned
Owner: MC CORMICK COUNTY
RT 2 BOX 84AA
MC CORMICK, SC 29835
Phone 864-852-2231
Manager: COLUMBUS STEPHENS
610 S. MINE STREET
MC CORMICK, SC 29835
Phone 864-852-2231
COUNTY ADMINISTRATOR.

Airport Operational Statistics

Aircraft operations: avg 21/month *
62% transient general aviation
21% local general aviation
17% military
* for 12-month period ending 20 March 2019

Additional Remarks

NO NIGHT OPERATIONS
FOR CD CTC AUGUSTA APCH AT 706-771-1777. WHEN AUGUSTA APCH CLSD, FOR CD CTC ATLANTA ARTCC AT 770-210-7692.

Instrument Procedures

There are no published instrument procedures at S19.

Some nearby airports with instrument procedures:

KGRD - Greenwood County Airport (21 nm N)
6J4 - Saluda County Airport (24 nm E)
KHQU - Thomson-McDuffie County Airport (26 nm SW)
KIIY - Washington-Wilkes County Airport (28 nm W)
KDNL - Daniel Field Airport (29 nm SE)
 
Loc | Ops | Rwys | IFR | FBO | Links
Com | Nav | Svcs | Stats | Notes
Area around S19 (Mc Cormick County Airport)
 
Road maps at: MapQuest Bing Google
 
Aerial photo
WARNING: Photo may not be current or correct
Aerial photo of S19 (Mc Cormick County Airport)
Photo by Richard Helton

Do you have a better or more recent aerial photo of Mc Cormick County Airport that you would like to share? If so, please send us your photo.

 
Sectional chart

 
Airport distance calculator
Flying to Mc Cormick County Airport? Find the distance to fly.

From to S19

Sunrise and sunset
Times for 20-Jan-2020
 Local
(UTC-5)
 Zulu
(UTC)
Morning civil twilight07:0712:07
Sunrise07:3412:34
Sunset17:4722:47
Evening civil twilight18:1423:14

Current date and time
Zulu (UTC)  20-Jan-2020 07:33:01
Local (UTC-5)  20-Jan-2020 02:33:01
 
METAR
KGRD 
21nm N 
200656Z AUTO 35005KT 10SM CLR M01/M09 A3023 RMK AO2 SLP238 T10061089
KHQU 
26nm SW 
200715Z AUTO 02004KT 10SM CLR 01/M05 A3022 RMK AO2 T00071052
KIIY 
28nm W 
192130Z AUTO 27012G17KT 10SM CLR 10/M04 A3004 RMK AO2 TSNO
KDNL 
29nm SE 
200653Z AUTO 34004KT 10SM CLR 04/M06 A3019 RMK AO2 SLP224 T00391056
KAIK 
33nm SE 
200715Z AUTO 35007KT 10SM CLR 02/M06 A3020 RMK AO2 T00171059
KAGS 
36nm SE 
200653Z AUTO 33006KT 10SM CLR 02/M04 A3019 RMK AO2 SLP223 T00171044 $
KLUX 
39nm NE 
200715Z AUTO 36005KT 10SM CLR 00/M08 A3022 RMK AO2
KEOE 
39nm NE 
200715Z AUTO 36005KT 10SM CLR 00/M06 A3025 RMK AO2
KAND 
42nm NW 
200656Z AUTO 06007KT 10SM CLR 00/M09 A3021 RMK AO2 SLP231 T00001094
TAF
KDNL 
29nm SE 
200525Z 2006/2106 33008KT P6SM SKC FM200800 36007KT P6SM SKC FM201300 36008G15KT P6SM SKC FM202000 01007KT P6SM SKC
KAGS 
36nm SE 
200525Z 2006/2106 33008KT P6SM SKC FM200800 36007KT P6SM SKC FM201300 36008G15KT P6SM SKC FM202000 01007KT P6SM SKC
NOTAMs
Click for the latest NOTAMs
NOTAMs are issued by the DoD/FAA and will open in a separate window not controlled by AirNav.

 

 
 

Would you like to see your business listed on this page?

 If your business provides an interesting product or service to pilots, flight crews, aircraft, or users of the Mc Cormick County Airport, you should consider listing it here.  To start the listing process, click on the button below
 
Add a business
 

Other Pages about Mc Cormick County Airport

Update a link
 
Copyright © AirNav, LLC. All rights reserved. Privacy Policy  Contact